Time;durP1;ratioP1;P1;durP2;ratioP2;P2;SDS_P1;SDS_P2;PMS_P1;PMS_P2;Temp;Humidity;BMP_temperature;BMP_pressure;BME280_temperature;BME280_humidity;BME280_pressure;Samples;Min_cycle;Max_cycle;Signal;HPM_P1;HPM_P2
2022/06/06 00:01:15;;;;;;;;;;;22.30;65.00;;;;;;5034034;28;19925;-88
2022/06/06 00:03:41;;;;;;;;;;;22.30;64.90;;;;;;5031328;28;19917;-89
2022/06/06 00:06:14;;;;;;;;;;;22.30;64.90;;;;;;5011405;28;19915;-89
2022/06/06 00:08:40;;;;;;;;;;;22.30;64.90;;;;;;4999669;28;19918;-88
2022/06/06 00:11:09;;;;;;;;;;;22.30;64.90;;;;;;5013749;28;19917;-89
2022/06/06 00:13:38;;;;;;;;;;;22.30;64.70;;;;;;5005764;28;19929;-89
2022/06/06 00:16:04;;;;;;;;;;;22.20;64.40;;;;;;4999515;28;19924;-89
2022/06/06 00:18:30;;;;;;;;;;;22.20;64.50;;;;;;5031723;28;20444;-88
2022/06/06 00:20:55;;;;;;;;;;;22.20;64.70;;;;;;4998039;28;19928;-89
2022/06/06 00:23:21;;;;;;;;;;;22.20;64.80;;;;;;5023016;28;19921;-90
2022/06/06 00:25:47;;;;;;;;;;;22.30;64.70;;;;;;5010014;28;19913;-91
2022/06/06 00:28:12;;;;;;;;;;;22.20;64.80;;;;;;5019332;28;20379;-91
2022/06/06 00:30:38;;;;;;;;;;;22.30;64.90;;;;;;5016725;28;19921;-88
2022/06/06 00:35:47;;;;;;;;;;;22.30;64.70;;;;;;5031759;28;19920;-88
2022/06/06 00:38:13;;;;;;;;;;;22.30;64.70;;;;;;5031122;28;19921;-89
2022/06/06 00:40:38;;;;;;;;;;;22.30;64.60;;;;;;5037382;28;19964;-88
2022/06/06 00:43:04;;;;;;;;;;;22.30;64.50;;;;;;5019372;28;19917;-89
2022/06/06 00:45:31;;;;;;;;;;;22.30;64.30;;;;;;5038526;28;20354;-89
2022/06/06 00:48:01;;;;;;;;;;;22.40;64.60;;;;;;5019978;28;19924;-89
2022/06/06 00:50:33;;;;;;;;;;;22.40;64.60;;;;;;5018630;28;19913;-88
2022/06/06 00:52:59;;;;;;;;;;;22.40;64.20;;;;;;5019046;28;19953;-88
2022/06/06 00:55:27;;;;;;;;;;;22.40;64.20;;;;;;5019468;28;19913;-88
2022/06/06 00:57:57;;;;;;;;;;;22.40;64.20;;;;;;5036782;28;20667;-88
2022/06/06 01:00:23;;;;;;;;;;;22.40;64.30;;;;;;5037221;28;19917;-89
2022/06/06 01:02:51;;;;;;;;;;;22.40;64.30;;;;;;5038208;28;19983;-90
2022/06/06 01:05:17;;;;;;;;;;;22.40;64.10;;;;;;5016388;28;19920;-88
2022/06/06 01:07:43;;;;;;;;;;;22.40;64.10;;;;;;5030043;28;19930;-88
2022/06/06 01:10:08;;;;;;;;;;;22.40;64.20;;;;;;5008691;28;19961;-88
2022/06/06 01:12:34;;;;;;;;;;;22.50;64.20;;;;;;5026668;28;19917;-88
2022/06/06 01:15:04;;;;;;;;;;;22.50;64.20;;;;;;5032900;28;19913;-89
2022/06/06 01:17:53;;;;;;;;;;;22.40;64.20;;;;;;5012517;28;20301;-88
2022/06/06 01:20:19;;;;;;;;;;;22.40;64.20;;;;;;5030651;28;20359;-89
2022/06/06 01:23:08;;;;;;;;;;;22.40;64.00;;;;;;5019094;28;20257;-86
2022/06/06 01:25:38;;;;;;;;;;;22.40;64.30;;;;;;4979983;28;20004;-87
2022/06/06 01:28:09;;;;;;;;;;;22.40;64.30;;;;;;5019001;28;19979;-89
2022/06/06 01:30:40;;;;;;;;;;;22.50;64.20;;;;;;4999690;28;19917;-89
2022/06/06 01:33:08;;;;;;;;;;;22.50;64.40;;;;;;5019226;28;20278;-89
2022/06/06 01:35:36;;;;;;;;;;;22.50;64.40;;;;;;5018684;28;19917;-89
2022/06/06 01:38:02;;;;;;;;;;;22.50;64.40;;;;;;5036958;28;19924;-89
2022/06/06 01:40:32;;;;;;;;;;;22.60;64.40;;;;;;5034270;28;19920;-88
2022/06/06 01:43:06;;;;;;;;;;;22.60;64.30;;;;;;5036461;28;19917;-88
2022/06/06 01:45:41;;;;;;;;;;;22.60;64.40;;;;;;5009636;28;20258;-88
2022/06/06 01:48:09;;;;;;;;;;;22.60;64.40;;;;;;5029490;28;19917;-91
2022/06/06 01:50:38;;;;;;;;;;;22.60;64.40;;;;;;5034731;28;19914;-91
2022/06/06 01:53:06;;;;;;;;;;;22.60;64.30;;;;;;5002867;28;19921;-90
2022/06/06 01:55:33;;;;;;;;;;;22.60;64.50;;;;;;4999781;28;19913;-90
2022/06/06 01:58:03;;;;;;;;;;;22.60;64.60;;;;;;5002394;28;19909;-87
2022/06/06 02:00:30;;;;;;;;;;;22.60;64.30;;;;;;5036392;28;20482;-87
2022/06/06 02:02:56;;;;;;;;;;;22.60;64.40;;;;;;5017455;28;19921;-86
2022/06/06 02:05:21;;;;;;;;;;;22.60;64.50;;;;;;5035718;28;19913;-89
2022/06/06 02:07:47;;;;;;;;;;;22.60;64.30;;;;;;5036526;28;19917;-89
2022/06/06 02:10:14;;;;;;;;;;;22.60;64.30;;;;;;5018770;28;19970;-87
2022/06/06 02:12:40;;;;;;;;;;;22.60;64.50;;;;;;5019048;28;19914;-87
2022/06/06 02:15:06;;;;;;;;;;;22.60;64.50;;;;;;5036347;28;20417;-88
2022/06/06 02:17:32;;;;;;;;;;;22.70;64.60;;;;;;5036474;28;19914;-88
2022/06/06 02:19:57;;;;;;;;;;;22.60;64.40;;;;;;5036432;28;19976;-88
2022/06/06 02:22:23;;;;;;;;;;;22.60;64.30;;;;;;5019068;28;19982;-88
2022/06/06 02:24:48;;;;;;;;;;;22.70;64.40;;;;;;5018140;28;19963;-88
2022/06/06 02:27:14;;;;;;;;;;;22.70;64.30;;;;;;5036374;28;19921;-88
2022/06/06 02:29:39;;;;;;;;;;;22.70;64.30;;;;;;5018488;28;19913;-88
2022/06/06 02:32:05;;;;;;;;;;;22.70;64.30;;;;;;5036073;28;19913;-88
2022/06/06 02:34:31;;;;;;;;;;;22.60;64.40;;;;;;5034817;28;20369;-88
2022/06/06 02:36:56;;;;;;;;;;;22.50;64.60;;;;;;5036183;28;20014;-87
2022/06/06 02:39:21;;;;;;;;;;;22.50;64.70;;;;;;5018124;28;20353;-88
2022/06/06 02:41:47;;;;;;;;;;;22.50;64.90;;;;;;5036048;28;20368;-87
2022/06/06 02:44:12;;;;;;;;;;;22.40;64.70;;;;;;5017855;28;20358;-88
2022/06/06 02:46:38;;;;;;;;;;;22.30;64.30;;;;;;5035042;28;19913;-88
2022/06/06 02:49:03;;;;;;;;;;;22.30;64.40;;;;;;5018012;28;19928;-88
2022/06/06 02:51:29;;;;;;;;;;;22.30;64.20;;;;;;5035955;28;19913;-88
2022/06/06 02:53:54;;;;;;;;;;;22.20;63.60;;;;;;5035853;28;19968;-88
2022/06/06 02:56:20;;;;;;;;;;;22.10;63.50;;;;;;5017615;28;19913;-87
2022/06/06 02:58:46;;;;;;;;;;;22.10;63.50;;;;;;5018035;28;20016;-87
2022/06/06 03:01:12;;;;;;;;;;;22.00;63.30;;;;;;5035699;28;19917;-87
2022/06/06 03:03:38;;;;;;;;;;;21.90;63.00;;;;;;5017018;28;19940;-88
2022/06/06 03:06:10;;;;;;;;;;;21.90;63.10;;;;;;5035270;28;19924;-87
2022/06/06 03:08:41;;;;;;;;;;;21.80;63.20;;;;;;5018740;28;19917;-87
2022/06/06 03:11:14;;;;;;;;;;;21.80;63.20;;;;;;5017423;28;19909;-87
2022/06/06 03:13:48;;;;;;;;;;;21.80;63.40;;;;;;5034569;28;19971;-87
2022/06/06 03:22:17;;;;;;;;;;;21.80;63.10;;;;;;5034314;28;19924;-87
2022/06/06 03:24:43;;;;;;;;;;;21.70;63.20;;;;;;5033995;28;19921;-87
2022/06/06 03:27:15;;;;;;;;;;;21.70;63.20;;;;;;5033457;28;19909;-87
2022/06/06 03:29:49;;;;;;;;;;;21.80;63.30;;;;;;5033903;28;19913;-87
2022/06/06 03:32:32;;;;;;;;;;;21.70;63.50;;;;;;5033180;28;19917;-87
2022/06/06 03:35:18;;;;;;;;;;;21.70;63.00;;;;;;5012510;28;20005;-87
2022/06/06 03:37:52;;;;;;;;;;;21.70;63.10;;;;;;5003716;28;19917;-87
2022/06/06 03:40:21;;;;;;;;;;;21.70;63.10;;;;;;5033830;28;19921;-87
2022/06/06 03:42:54;;;;;;;;;;;21.70;63.20;;;;;;5033631;28;19917;-87
2022/06/06 03:45:28;;;;;;;;;;;21.80;62.80;;;;;;5033542;28;19978;-87
2022/06/06 03:48:00;;;;;;;;;;;21.70;63.00;;;;;;5033856;28;20011;-87
2022/06/06 03:50:45;;;;;;;;;;;21.70;63.10;;;;;;5033739;28;19913;-88
2022/06/06 03:53:31;;;;;;;;;;;21.80;63.10;;;;;;5015877;28;19953;-87
2022/06/06 03:56:11;;;;;;;;;;;21.80;63.10;;;;;;5008954;28;20278;-88
2022/06/06 03:58:37;;;;;;;;;;;21.70;63.20;;;;;;5009035;28;20682;-88
2022/06/06 04:01:05;;;;;;;;;;;21.80;63.30;;;;;;5033618;28;19917;-88
2022/06/06 04:03:32;;;;;;;;;;;21.80;62.90;;;;;;5036216;28;19917;-88
2022/06/06 04:06:01;;;;;;;;;;;21.80;63.00;;;;;;5040150;28;20000;-88
2022/06/06 04:08:27;;;;;;;;;;;21.80;63.00;;;;;;5022123;28;19918;-86
2022/06/06 04:11:00;;;;;;;;;;;21.80;62.90;;;;;;5018194;28;19920;-86
2022/06/06 04:13:25;;;;;;;;;;;21.90;62.90;;;;;;5038760;28;19980;-86
2022/06/06 04:16:10;;;;;;;;;;;21.90;62.60;;;;;;5020951;28;19925;-86
2022/06/06 04:18:54;;;;;;;;;;;21.90;62.70;;;;;;5032370;28;19932;-86
2022/06/06 04:21:22;;;;;;;;;;;21.90;62.50;;;;;;5039161;28;20022;-86
2022/06/06 04:23:56;;;;;;;;;;;21.90;62.60;;;;;;5038938;28;20365;-86
2022/06/06 04:26:28;;;;;;;;;;;22.00;62.60;;;;;;5021247;28;19975;-87
2022/06/06 04:29:04;;;;;;;;;;;22.00;62.50;;;;;;5021080;28;20325;-87
2022/06/06 04:31:29;;;;;;;;;;;22.00;62.50;;;;;;5038939;28;19917;-87
2022/06/06 04:34:00;;;;;;;;;;;22.00;62.50;;;;;;5021010;28;19920;-87
2022/06/06 04:36:52;;;;;;;;;;;22.10;62.60;;;;;;5008494;28;19916;-88
2022/06/06 04:39:24;;;;;;;;;;;22.20;62.50;;;;;;5015435;28;19925;-87
2022/06/06 04:42:04;;;;;;;;;;;22.20;62.30;;;;;;5039263;28;20258;-87
2022/06/06 04:44:42;;;;;;;;;;;22.20;62.20;;;;;;5038988;28;19917;-87
2022/06/06 04:47:11;;;;;;;;;;;22.20;62.20;;;;;;5021025;28;19913;-87
2022/06/06 04:49:37;;;;;;;;;;;22.20;61.80;;;;;;5038597;28;19920;-87
2022/06/06 04:52:03;;;;;;;;;;;22.30;61.80;;;;;;5021381;28;19920;-87
2022/06/06 04:54:30;;;;;;;;;;;22.30;61.70;;;;;;5021333;28;19956;-87
2022/06/06 04:56:58;;;;;;;;;;;22.30;61.70;;;;;;5038889;28;19956;-87
2022/06/06 04:59:24;;;;;;;;;;;22.40;61.90;;;;;;5020979;28;19927;-87
2022/06/06 05:01:50;;;;;;;;;;;22.40;62.10;;;;;;5038284;28;19920;-86
2022/06/06 05:04:15;;;;;;;;;;;22.50;61.90;;;;;;5020997;28;19918;-87
2022/06/06 05:06:41;;;;;;;;;;;22.60;61.60;;;;;;5038854;28;19999;-87
2022/06/06 05:09:18;;;;;;;;;;;22.60;61.40;;;;;;5020161;28;19924;-86
2022/06/06 05:12:01;;;;;;;;;;;22.70;61.30;;;;;;5038453;28;19913;-87
2022/06/06 05:14:33;;;;;;;;;;;22.80;61.50;;;;;;5038088;28;19917;-86
2022/06/06 05:17:20;;;;;;;;;;;22.90;61.90;;;;;;5017023;28;19920;-86
2022/06/06 05:19:52;;;;;;;;;;;23.20;62.60;;;;;;5035608;28;19921;-93
2022/06/06 05:22:38;;;;;;;;;;;23.50;62.20;;;;;;5017421;28;19917;-88
2022/06/06 05:25:06;;;;;;;;;;;23.70;61.40;;;;;;5032096;28;19951;-87
2022/06/06 05:27:40;;;;;;;;;;;23.80;60.50;;;;;;5027451;28;20265;-87
2022/06/06 05:30:18;;;;;;;;;;;23.90;60.10;;;;;;5011923;28;19996;-88
2022/06/06 05:32:49;;;;;;;;;;;24.00;60.50;;;;;;5017510;28;20292;-87
2022/06/06 05:35:17;;;;;;;;;;;24.10;60.20;;;;;;5034512;28;20376;-88
2022/06/06 05:38:01;;;;;;;;;;;24.20;59.10;;;;;;5016986;28;19978;-88
2022/06/06 05:40:35;;;;;;;;;;;24.20;58.80;;;;;;5034054;28;20361;-88
2022/06/06 05:43:13;;;;;;;;;;;24.20;57.70;;;;;;5015725;28;20318;-88
2022/06/06 05:45:49;;;;;;;;;;;24.10;57.40;;;;;;5030857;28;19921;-88
2022/06/06 05:48:22;;;;;;;;;;;24.00;57.70;;;;;;5035005;28;19921;-88
2022/06/06 05:51:02;;;;;;;;;;;23.90;57.50;;;;;;5034898;28;20008;-88
2022/06/06 05:53:37;;;;;;;;;;;23.80;57.30;;;;;;5016340;28;19917;-88
2022/06/06 05:56:10;;;;;;;;;;;23.80;57.20;;;;;;5034362;28;19921;-88
2022/06/06 05:58:44;;;;;;;;;;;23.80;57.20;;;;;;5029821;28;19927;-89
2022/06/06 06:01:15;;;;;;;;;;;23.70;57.10;;;;;;5008982;28;19926;-89
2022/06/06 06:03:50;;;;;;;;;;;23.70;57.10;;;;;;5035157;28;20316;-88
2022/06/06 06:06:34;;;;;;;;;;;23.70;56.90;;;;;;5034697;28;19917;-89
2022/06/06 06:08:59;;;;;;;;;;;23.80;57.20;;;;;;5016666;28;19917;-87
2022/06/06 06:11:35;;;;;;;;;;;23.90;57.30;;;;;;5033502;28;20008;-87
2022/06/06 06:14:01;;;;;;;;;;;24.00;57.70;;;;;;5031349;28;19928;-88
2022/06/06 06:16:29;;;;;;;;;;;24.10;57.50;;;;;;5034068;28;19999;-88
2022/06/06 06:19:07;;;;;;;;;;;24.30;57.50;;;;;;5015829;28;19921;-88
2022/06/06 06:21:36;;;;;;;;;;;24.40;57.40;;;;;;5034163;28;19917;-88
2022/06/06 06:24:09;;;;;;;;;;;24.50;57.20;;;;;;5011196;28;19928;-88
2022/06/06 06:26:36;;;;;;;;;;;24.60;56.30;;;;;;5009171;28;19927;-88
2022/06/06 06:29:02;;;;;;;;;;;24.70;56.70;;;;;;5034097;28;19917;-88
2022/06/06 06:31:35;;;;;;;;;;;24.90;57.00;;;;;;5023365;28;20000;-88
2022/06/06 06:34:01;;;;;;;;;;;25.10;56.40;;;;;;5034791;28;19948;-88
2022/06/06 06:36:50;;;;;;;;;;;25.20;55.40;;;;;;5016425;28;19913;-88
2022/06/06 06:39:25;;;;;;;;;;;25.30;55.80;;;;;;5016742;28;20337;-88
2022/06/06 06:42:16;;;;;;;;;;;25.60;55.80;;;;;;5034901;28;19921;-88
2022/06/06 06:44:46;;;;;;;;;;;25.80;55.00;;;;;;5016928;28;20007;-87
2022/06/06 06:47:17;;;;;;;;;;;26.10;54.20;;;;;;5033909;28;19917;-87
2022/06/06 06:49:43;;;;;;;;;;;26.30;54.60;;;;;;5033571;28;19966;-88
2022/06/06 06:52:16;;;;;;;;;;;26.40;53.80;;;;;;5015064;28;19913;-88
2022/06/06 06:54:44;;;;;;;;;;;26.50;53.20;;;;;;5013540;28;20265;-88
2022/06/06 06:57:19;;;;;;;;;;;26.70;52.80;;;;;;5014160;28;20036;-88
2022/06/06 06:59:52;;;;;;;;;;;26.80;52.80;;;;;;5025326;28;19917;-88
2022/06/06 07:08:33;;;;;;;;;;;27.30;52.10;;;;;;5034244;28;19924;-87
2022/06/06 07:11:18;;;;;;;;;;;27.60;51.00;;;;;;5012581;28;19963;-88
2022/06/06 07:14:02;;;;;;;;;;;27.80;50.90;;;;;;5008911;28;19917;-88
2022/06/06 07:16:29;;;;;;;;;;;27.80;49.60;;;;;;5010816;28;20373;-88
2022/06/06 07:19:15;;;;;;;;;;;27.80;48.70;;;;;;5013637;28;19929;-88
2022/06/06 07:21:41;;;;;;;;;;;27.80;47.90;;;;;;4973884;28;20384;-89
2022/06/06 07:24:08;;;;;;;;;;;27.70;47.80;;;;;;5015552;28;20020;-89
2022/06/06 07:26:37;;;;;;;;;;;27.60;47.30;;;;;;5024163;28;19913;-88
2022/06/06 07:29:05;;;;;;;;;;;27.50;46.40;;;;;;5013508;28;19913;-88
2022/06/06 07:31:49;;;;;;;;;;;27.30;45.30;;;;;;5023166;28;19944;-89
2022/06/06 07:34:22;;;;;;;;;;;27.20;45.30;;;;;;5035129;28;19986;-89
2022/06/06 07:36:57;;;;;;;;;;;27.20;46.20;;;;;;5007405;28;19917;-88
2022/06/06 07:39:26;;;;;;;;;;;27.40;46.40;;;;;;5023383;28;19925;-89
2022/06/06 07:41:58;;;;;;;;;;;27.80;47.20;;;;;;5019585;28;19976;-87
2022/06/06 07:44:43;;;;;;;;;;;28.20;45.50;;;;;;5011538;28;20265;-89
2022/06/06 07:47:18;;;;;;;;;;;28.80;45.50;;;;;;5033319;28;19913;-89
2022/06/06 07:50:06;;;;;;;;;;;29.80;44.70;;;;;;5034710;28;19921;-89
2022/06/06 07:52:43;;;;;;;;;;;30.60;43.10;;;;;;5026019;28;19963;-89
2022/06/06 07:55:11;;;;;;;;;;;31.20;41.10;;;;;;5018916;28;19996;-89
2022/06/06 07:57:42;;;;;;;;;;;31.50;38.70;;;;;;5014987;28;20281;-89
2022/06/06 08:00:10;;;;;;;;;;;31.70;38.60;;;;;;5002163;28;19933;-89
2022/06/06 08:02:54;;;;;;;;;;;32.00;38.20;;;;;;5033311;28;19917;-87
2022/06/06 08:05:39;;;;;;;;;;;32.30;38.70;;;;;;5034602;28;19917;-89
2022/06/06 08:08:08;;;;;;;;;;;32.80;37.20;;;;;;5019749;28;20691;-90
2022/06/06 08:10:38;;;;;;;;;;;33.10;34.90;;;;;;5036776;28;19966;-90
2022/06/06 08:13:12;;;;;;;;;;;33.10;33.90;;;;;;5000655;28;20171;-90
2022/06/06 08:15:53;;;;;;;;;;;33.20;34.30;;;;;;5033595;28;19924;-88
2022/06/06 08:18:18;;;;;;;;;;;33.40;34.20;;;;;;5015078;28;19914;-89
2022/06/06 08:20:50;;;;;;;;;;;33.50;34.70;;;;;;5017590;28;19994;-88
2022/06/06 08:23:20;;;;;;;;;;;33.90;35.10;;;;;;5016840;28;19921;-89
2022/06/06 08:25:47;;;;;;;;;;;34.30;35.10;;;;;;5013249;28;19944;-90
2022/06/06 08:28:13;;;;;;;;;;;34.70;33.40;;;;;;5005940;28;20396;-89
2022/06/06 08:30:40;;;;;;;;;;;35.00;32.40;;;;;;5015658;28;19963;-89
2022/06/06 08:33:05;;;;;;;;;;;35.10;31.60;;;;;;5017932;28;19917;-89
2022/06/06 08:35:39;;;;;;;;;;;34.90;30.10;;;;;;5015736;28;20364;-89
2022/06/06 08:38:14;;;;;;;;;;;34.80;30.60;;;;;;5017731;28;19924;-89
2022/06/06 08:40:42;;;;;;;;;;;35.00;31.10;;;;;;5028603;28;19925;-89
2022/06/06 08:43:14;;;;;;;;;;;35.30;30.20;;;;;;5015948;28;19917;-88
2022/06/06 08:45:51;;;;;;;;;;;35.70;29.90;;;;;;5015106;28;19920;-87
2022/06/06 08:48:38;;;;;;;;;;;35.80;28.90;;;;;;5031277;28;20272;-87
2022/06/06 08:51:24;;;;;;;;;;;35.90;28.80;;;;;;5009530;28;19918;-88
2022/06/06 08:54:11;;;;;;;;;;;35.80;28.20;;;;;;5013708;28;19921;-87
2022/06/06 08:56:42;;;;;;;;;;;35.80;28.50;;;;;;5012212;28;19917;-88
2022/06/06 08:59:20;;;;;;;;;;;36.20;28.60;;;;;;5039390;28;19971;-88
2022/06/06 09:01:48;;;;;;;;;;;36.60;27.70;;;;;;5030933;28;19921;-88
2022/06/06 09:04:32;;;;;;;;;;;36.70;26.70;;;;;;5034506;28;19917;-87
2022/06/06 09:07:13;;;;;;;;;;;36.70;26.20;;;;;;5016028;28;19924;-89
2022/06/06 09:09:56;;;;;;;;;;;36.60;25.80;;;;;;5026183;28;20009;-89
2022/06/06 09:12:50;;;;;;;;;;;36.30;25.10;;;;;;5032394;28;19917;-88
2022/06/06 09:15:16;;;;;;;;;;;36.40;25.00;;;;;;5016627;28;20361;-88
2022/06/06 09:18:01;;;;;;;;;;;36.70;24.30;;;;;;5013507;28;19918;-88
2022/06/06 09:20:47;;;;;;;;;;;37.00;23.90;;;;;;5036894;28;19918;-89
2022/06/06 09:23:18;;;;;;;;;;;37.40;22.60;;;;;;5018702;28;20651;-89
2022/06/06 09:26:00;;;;;;;;;;;37.70;22.40;;;;;;5036588;28;19932;-89
2022/06/06 09:28:45;;;;;;;;;;;38.10;22.30;;;;;;5034344;28;19925;-87
2022/06/06 09:31:29;;;;;;;;;;;38.50;22.00;;;;;;5007434;28;19914;-90
2022/06/06 09:34:13;;;;;;;;;;;38.90;21.30;;;;;;5009414;28;20000;-87
2022/06/06 09:36:57;;;;;;;;;;;39.20;20.50;;;;;;5026411;28;19979;-87
2022/06/06 09:39:23;;;;;;;;;;;39.50;20.40;;;;;;5027471;28;19917;-87
2022/06/06 09:42:02;;;;;;;;;;;39.70;20.30;;;;;;5005642;28;19925;-88
2022/06/06 09:44:34;;;;;;;;;;;40.20;20.30;;;;;;5005835;28;19914;-87
2022/06/06 09:47:02;;;;;;;;;;;40.30;18.50;;;;;;5029060;28;19917;-87
2022/06/06 09:49:47;;;;;;;;;;;40.30;18.60;;;;;;5015115;28;19936;-88
2022/06/06 09:52:29;;;;;;;;;;;40.30;18.50;;;;;;5010143;28;19917;-88
2022/06/06 10:01:08;;;;;;;;;;;41.00;18.10;;;;;;5023169;28;20016;-88
2022/06/06 10:03:46;;;;;;;;;;;40.60;17.60;;;;;;5010766;28;20391;-90
2022/06/06 10:06:24;;;;;;;;;;;40.30;17.70;;;;;;5033860;28;19956;-87
2022/06/06 10:09:10;;;;;;;;;;;40.40;18.30;;;;;;5011451;28;19948;-88
2022/06/06 10:11:54;;;;;;;;;;;40.60;18.40;;;;;;5024227;28;19944;-88
2022/06/06 10:14:38;;;;;;;;;;;40.80;18.30;;;;;;5028146;28;19924;-88
2022/06/06 10:17:18;;;;;;;;;;;40.80;18.40;;;;;;5022791;28;19917;-89
2022/06/06 10:19:53;;;;;;;;;;;41.20;18.00;;;;;;5013413;28;19917;-90
2022/06/06 10:22:29;;;;;;;;;;;41.10;17.70;;;;;;5010054;28;19921;-90
2022/06/06 10:25:02;;;;;;;;;;;40.70;17.10;;;;;;5023546;28;19928;-91
2022/06/06 10:27:41;;;;;;;;;;;40.40;17.70;;;;;;5028691;28;20269;-91
2022/06/06 10:30:12;;;;;;;;;;;40.00;17.10;;;;;;5023107;28;19925;-92
2022/06/06 10:32:56;;;;;;;;;;;39.50;17.80;;;;;;5010890;28;20000;-90
2022/06/06 10:35:41;;;;;;;;;;;39.30;17.90;;;;;;5011327;28;20028;-90
2022/06/06 10:38:09;;;;;;;;;;;38.90;18.20;;;;;;5027557;28;20373;-90
2022/06/06 10:40:44;;;;;;;;;;;39.00;18.10;;;;;;5012196;28;19925;-90
2022/06/06 10:43:25;;;;;;;;;;;39.50;18.30;;;;;;5037074;28;19921;-93
2022/06/06 10:45:56;;;;;;;;;;;39.80;17.70;;;;;;5021169;28;19918;-89
2022/06/06 10:48:41;;;;;;;;;;;40.00;17.60;;;;;;5010403;28;19917;-90
2022/06/06 10:53:53;;;;;;;;;;;41.30;16.80;;;;;;5021230;28;20000;-91
2022/06/06 10:56:33;;;;;;;;;;;41.40;16.50;;;;;;5017150;28;19913;-90
2022/06/06 10:59:18;;;;;;;;;;;41.50;16.10;;;;;;5010839;28;19948;-89
2022/06/06 11:01:56;;;;;;;;;;;42.00;16.20;;;;;;5012567;28;19931;-90
2022/06/06 11:04:40;;;;;;;;;;;42.20;15.40;;;;;;5021670;28;19943;-89
2022/06/06 11:07:27;;;;;;;;;;;41.80;15.60;;;;;;5027280;28;20008;-90
2022/06/06 11:09:56;;;;;;;;;;;41.20;16.10;;;;;;4994213;28;19960;-90
2022/06/06 11:12:40;;;;;;;;;;;40.30;16.80;;;;;;5015166;28;19932;-90
2022/06/06 11:15:06;;;;;;;;;;;39.80;17.20;;;;;;5009960;28;19921;-90
2022/06/06 11:17:56;;;;;;;;;;;39.00;17.60;;;;;;5024216;28;19937;-89
2022/06/06 11:20:47;;;;;;;;;;;38.30;17.90;;;;;;5012088;28;19913;-90
2022/06/06 11:23:19;;;;;;;;;;;38.30;18.30;;;;;;5030733;28;19988;-89
2022/06/06 11:26:04;;;;;;;;;;;38.90;18.20;;;;;;5019381;28;20019;-89
2022/06/06 11:28:48;;;;;;;;;;;39.60;18.00;;;;;;5017363;28;20465;-90
2022/06/06 11:31:13;;;;;;;;;;;40.40;17.60;;;;;;5031682;28;20040;-89
2022/06/06 11:33:56;;;;;;;;;;;40.50;17.60;;;;;;5012534;28;20013;-89
2022/06/06 11:36:31;;;;;;;;;;;39.90;17.80;;;;;;5014099;28;19918;-89
2022/06/06 11:39:05;;;;;;;;;;;39.20;17.90;;;;;;5008740;28;19914;-89
2022/06/06 11:41:39;;;;;;;;;;;38.70;18.10;;;;;;5017505;28;19924;-89
2022/06/06 11:44:13;;;;;;;;;;;38.20;18.40;;;;;;5012231;28;19923;-90
2022/06/06 11:46:46;;;;;;;;;;;37.70;18.90;;;;;;5023007;28;20301;-89
2022/06/06 11:49:27;;;;;;;;;;;37.20;19.30;;;;;;5027865;28;19923;-88
2022/06/06 11:51:53;;;;;;;;;;;36.90;19.60;;;;;;5024211;28;20333;-92
2022/06/06 11:54:21;;;;;;;;;;;36.40;19.70;;;;;;5033024;28;20312;-88
2022/06/06 11:57:08;;;;;;;;;;;36.10;20.00;;;;;;5029997;28;19953;-88
2022/06/06 11:59:52;;;;;;;;;;;35.60;20.30;;;;;;5010429;28;20321;-89
2022/06/06 12:02:32;;;;;;;;;;;35.20;20.70;;;;;;5011368;28;19917;-89
2022/06/06 12:05:04;;;;;;;;;;;34.70;21.10;;;;;;5024827;28;19947;-90
2022/06/06 12:07:36;;;;;;;;;;;34.70;21.40;;;;;;5029813;28;19999;-91
2022/06/06 12:10:28;;;;;;;;;;;35.30;21.40;;;;;;5032250;28;19928;-89
2022/06/06 12:13:25;;;;;;;;;;;35.70;21.30;;;;;;5012169;28;19938;-90
2022/06/06 12:15:53;;;;;;;;;;;35.80;21.10;;;;;;5029715;28;19923;-89
2022/06/06 12:18:38;;;;;;;;;;;35.40;20.00;;;;;;5010954;28;19918;-88
2022/06/06 12:21:25;;;;;;;;;;;35.30;20.50;;;;;;5005425;28;19914;-87
2022/06/06 12:24:17;;;;;;;;;;;35.00;20.10;;;;;;5010641;28;19920;-87
2022/06/06 12:26:55;;;;;;;;;;;34.90;20.50;;;;;;5009667;28;19948;-87
2022/06/06 12:29:39;;;;;;;;;;;34.90;20.70;;;;;;5007397;28;19936;-87
2022/06/06 12:32:27;;;;;;;;;;;35.00;20.80;;;;;;5015152;28;19925;-87
2022/06/06 12:35:00;;;;;;;;;;;34.80;20.70;;;;;;5026209;28;19990;-87
2022/06/06 12:37:45;;;;;;;;;;;34.60;21.10;;;;;;5027291;28;20381;-87
2022/06/06 12:40:24;;;;;;;;;;;34.20;22.00;;;;;;5026151;28;19989;-87
2022/06/06 12:43:13;;;;;;;;;;;33.60;23.80;;;;;;5031364;28;20429;-87
2022/06/06 12:45:41;;;;;;;;;;;33.20;24.20;;;;;;5027572;28;20306;-86
2022/06/06 12:48:39;;;;;;;;;;;33.00;23.90;;;;;;5017612;28;19921;-86
2022/06/06 12:51:24;;;;;;;;;;;32.80;23.40;;;;;;4981193;28;19925;-86
2022/06/06 12:54:09;;;;;;;;;;;32.70;23.20;;;;;;5016268;28;19927;-86
2022/06/06 12:56:38;;;;;;;;;;;32.80;23.60;;;;;;5030368;28;19922;-87
2022/06/06 12:59:04;;;;;;;;;;;33.10;23.60;;;;;;5013346;28;19932;-86
2022/06/06 13:01:51;;;;;;;;;;;33.80;22.90;;;;;;5018928;28;19967;-86
2022/06/06 13:04:16;;;;;;;;;;;34.70;22.40;;;;;;5027475;28;20071;-85
2022/06/06 13:06:42;;;;;;;;;;;35.50;21.80;;;;;;5015109;28;19945;-87
2022/06/06 13:09:08;;;;;;;;;;;36.20;20.60;;;;;;5015775;28;20007;-89
2022/06/06 13:11:42;;;;;;;;;;;36.50;19.50;;;;;;5016472;28;20015;-88
2022/06/06 13:14:23;;;;;;;;;;;36.60;19.70;;;;;;5028182;28;19913;-87
2022/06/06 13:16:57;;;;;;;;;;;36.40;19.80;;;;;;5032224;28;20008;-88
2022/06/06 13:19:29;;;;;;;;;;;35.90;20.50;;;;;;5029310;28;19976;-88
2022/06/06 13:22:13;;;;;;;;;;;35.30;21.00;;;;;;5026625;28;20004;-88
2022/06/06 13:24:39;;;;;;;;;;;34.80;21.60;;;;;;5029242;28;19968;-87
2022/06/06 13:27:18;;;;;;;;;;;33.90;26.20;;;;;;5024630;28;19921;-86
2022/06/06 13:29:46;;;;;;;;;;;32.80;30.40;;;;;;5019533;28;19924;-87
2022/06/06 13:32:12;;;;;;;;;;;31.50;37.00;;;;;;5021559;28;20427;-86
2022/06/06 13:34:42;;;;;;;;;;;30.50;39.40;;;;;;5023221;28;19913;-87
2022/06/06 13:37:08;;;;;;;;;;;29.50;43.40;;;;;;5018103;28;19921;-86
2022/06/06 13:39:52;;;;;;;;;;;28.50;46.20;;;;;;5036926;28;19990;-86
2022/06/06 13:42:36;;;;;;;;;;;28.00;49.20;;;;;;5031562;28;20380;-87
2022/06/06 13:45:13;;;;;;;;;;;28.00;52.00;;;;;;5018531;28;19920;-86
2022/06/06 13:48:17;;;;;;;;;;;28.30;52.30;;;;;;5032668;28;19963;-87
2022/06/06 13:50:53;;;;;;;;;;;28.30;53.60;;;;;;4955445;28;19923;-87
2022/06/06 13:53:32;;;;;;;;;;;28.70;54.80;;;;;;5024654;28;19949;-88
2022/06/06 13:56:26;;;;;;;;;;;29.60;54.20;;;;;;5019423;28;19919;-87
2022/06/06 13:58:59;;;;;;;;;;;30.50;53.60;;;;;;4998800;28;19917;-86
2022/06/06 14:01:24;;;;;;;;;;;30.70;52.80;;;;;;5028841;28;19921;-85
2022/06/06 14:03:56;;;;;;;;;;;30.40;51.20;;;;;;5035137;28;20416;-87
2022/06/06 14:06:24;;;;;;;;;;;30.60;51.70;;;;;;5017723;28;19918;-86
2022/06/06 14:08:51;;;;;;;;;;;31.30;51.60;;;;;;5020716;28;19920;-87
2022/06/06 14:11:32;;;;;;;;;;;32.00;48.90;;;;;;5020764;28;19925;-87
2022/06/06 14:13:59;;;;;;;;;;;32.40;48.10;;;;;;5034296;28;19917;-86
2022/06/06 14:16:27;;;;;;;;;;;32.80;48.30;;;;;;5015725;28;20039;-89
2022/06/06 14:18:55;;;;;;;;;;;33.10;47.80;;;;;;5017436;28;19975;-88
2022/06/06 14:21:22;;;;;;;;;;;33.20;45.90;;;;;;5019273;28;20016;-87
2022/06/06 14:23:47;;;;;;;;;;;33.30;45.90;;;;;;5015277;28;19920;-86
2022/06/06 14:26:17;;;;;;;;;;;33.30;45.70;;;;;;5032986;28;19917;-87
2022/06/06 14:29:02;;;;;;;;;;;33.20;42.00;;;;;;5018094;28;19925;-88
2022/06/06 14:31:40;;;;;;;;;;;32.80;42.70;;;;;;5032438;28;19917;-87
2022/06/06 14:34:26;;;;;;;;;;;32.40;38.80;;;;;;5027595;28;19923;-87
2022/06/06 14:37:10;;;;;;;;;;;31.70;38.40;;;;;;5031731;28;21196;-88
2022/06/06 14:39:35;;;;;;;;;;;31.00;41.00;;;;;;5005759;28;19951;-88
2022/06/06 14:42:03;;;;;;;;;;;30.40;42.70;;;;;;5008044;28;19917;-88
2022/06/06 14:44:41;;;;;;;;;;;30.00;42.60;;;;;;5016402;28;19945;-89
2022/06/06 14:47:12;;;;;;;;;;;29.50;42.60;;;;;;5017408;28;19924;-88
2022/06/06 14:50:45;;;;;;;;;;;29.00;41.80;;;;;;5013627;28;20261;-88
2022/06/06 14:52:25;;;;;;;;;;;28.70;42.40;;;;;;5024577;28;19971;-86
2022/06/06 14:54:56;;;;;;;;;;;28.50;43.60;;;;;;5025939;28;19917;-86
2022/06/06 14:57:25;;;;;;;;;;;28.30;44.50;;;;;;5026773;28;19925;-88
2022/06/06 14:59:51;;;;;;;;;;;28.20;42.80;;;;;;5030639;28;19913;-89
2022/06/06 15:02:22;;;;;;;;;;;28.00;40.00;;;;;;5011135;28;19924;-87
2022/06/06 15:05:07;;;;;;;;;;;27.90;39.20;;;;;;5021858;28;19913;-87
2022/06/06 15:07:51;;;;;;;;;;;27.80;39.50;;;;;;5033715;28;19917;-87
2022/06/06 15:10:26;;;;;;;;;;;27.80;40.60;;;;;;5031275;28;19921;-89
2022/06/06 15:12:52;;;;;;;;;;;27.80;39.80;;;;;;5029770;28;20318;-87
2022/06/06 15:15:18;;;;;;;;;;;27.80;40.30;;;;;;5025904;28;19917;-87
2022/06/06 15:17:48;;;;;;;;;;;28.00;39.10;;;;;;5030934;28;19939;-86